Time;durP1;ratioP1;P1;durP2;ratioP2;P2;SDS_P1;SDS_P2;PMS_P1;PMS_P2;Temp;Humidity;BMP_temperature;BMP_pressure;BME280_temperature;BME280_humidity;BME280_pressure;Samples;Min_cycle;Max_cycle;Signal;HPM_P1;HPM_P2
2022/10/01 00:00:47;;;;;;;4.40;2.80;;;13.20;69.10;;;;;;5094190;28;20039;-47
2022/10/01 00:03:13;;;;;;;2.60;2.40;;;13.20;69.00;;;;;;5094441;28;20426;-48
2022/10/01 00:05:38;;;;;;;7.10;2.33;;;13.20;69.00;;;;;;5094066;28;20020;-48
2022/10/01 00:08:04;;;;;;;4.32;2.67;;;13.20;69.10;;;;;;5094317;28;20468;-47
2022/10/01 00:10:30;;;;;;;6.45;2.92;;;13.20;69.10;;;;;;5093974;28;20103;-49
2022/10/01 00:12:57;;;;;;;5.72;2.75;;;13.20;69.10;;;;;;5094191;28;20077;-47
2022/10/01 00:15:25;;;;;;;5.00;2.80;;;13.20;69.10;;;;;;5094100;28;20024;-48
2022/10/01 00:17:51;;;;;;;3.88;3.03;;;13.30;68.90;;;;;;5093677;28;20027;-49
2022/10/01 00:20:17;;;;;;;4.13;2.33;;;13.30;68.70;;;;;;5093712;28;20107;-47
2022/10/01 00:22:43;;;;;;;4.60;2.67;;;13.30;68.80;;;;;;5093803;28;20035;-47
2022/10/01 00:25:09;;;;;;;3.80;2.55;;;13.30;69.00;;;;;;5093729;28;20413;-50
2022/10/01 00:27:35;;;;;;;3.38;2.53;;;13.30;68.60;;;;;;5093663;28;20040;-48
2022/10/01 00:30:05;;;;;;;6.05;2.50;;;13.30;68.90;;;;;;5093893;28;20020;-48
2022/10/01 00:32:31;;;;;;;5.97;2.85;;;13.30;69.60;;;;;;5093717;28;20525;-46
2022/10/01 00:35:02;;;;;;;4.45;2.83;;;13.30;70.50;;;;;;5093942;28;20024;-47
2022/10/01 00:37:27;;;;;;;5.45;2.92;;;13.10;71.50;;;;;;5091891;28;20528;-48
2022/10/01 00:39:53;;;;;;;4.80;3.35;;;13.00;72.70;;;;;;5093442;28;20103;-47
2022/10/01 00:42:22;;;;;;;3.40;2.55;;;12.80;74.20;;;;;;5092093;28;20115;-51
2022/10/01 00:44:48;;;;;;;5.53;3.40;;;12.60;75.50;;;;;;5093446;28;20384;-47
2022/10/01 00:47:30;;;;;;;5.45;3.92;;;12.40;76.60;;;;;;5093416;28;20026;-46
2022/10/01 00:50:06;;;;;;;7.97;3.70;;;12.30;78.30;;;;;;5093476;28;20028;-47
2022/10/01 00:52:34;;;;;;;5.00;3.50;;;12.00;79.80;;;;;;5076157;28;20384;-48
2022/10/01 00:55:11;;;;;;;5.22;4.30;;;11.90;80.10;;;;;;5093462;28;20024;-48
2022/10/01 00:57:38;;;;;;;4.55;3.72;;;11.80;81.30;;;;;;5093698;28;20043;-48
2022/10/01 01:00:08;;;;;;;4.45;3.67;;;11.70;82.30;;;;;;5093372;28;20032;-46
2022/10/01 01:02:34;;;;;;;7.27;4.63;;;11.60;83.10;;;;;;5093152;28;20024;-47
2022/10/01 01:05:00;;;;;;;3.90;3.33;;;11.50;83.40;;;;;;5093094;28;20265;-46
2022/10/01 01:07:27;;;;;;;7.00;4.80;;;11.40;83.60;;;;;;5093188;28;20028;-46
2022/10/01 01:09:54;;;;;;;10.80;5.80;;;11.40;84.10;;;;;;5093153;28;20031;-48
2022/10/01 01:12:23;;;;;;;5.28;4.70;;;11.40;84.30;;;;;;5092977;28;20083;-47
2022/10/01 01:15:00;;;;;;;12.57;4.05;;;11.30;84.50;;;;;;5092989;28;20468;-47
2022/10/01 01:17:54;;;;;;;7.28;4.20;;;11.30;84.90;;;;;;5093251;28;20070;-47
2022/10/01 01:20:57;;;;;;;8.38;4.85;;;11.30;85.20;;;;;;5085088;28;20388;-47
2022/10/01 01:23:30;;;;;;;7.72;4.25;;;11.30;85.50;;;;;;5093035;28;20073;-47
2022/10/01 01:26:04;;;;;;;6.18;4.28;;;11.30;85.80;;;;;;5092661;28;20063;-50
2022/10/01 01:28:36;;;;;;;7.38;5.15;;;11.30;86.00;;;;;;5092658;28;20119;-47
2022/10/01 01:31:17;;;;;;;5.72;4.60;;;11.20;86.40;;;;;;5093093;28;20067;-47
2022/10/01 01:33:46;;;;;;;7.05;5.13;;;11.20;86.90;;;;;;5075085;28;20028;-48
2022/10/01 01:36:17;;;;;;;8.45;4.88;;;11.10;87.20;;;;;;5094177;28;20046;-48
2022/10/01 01:38:45;;;;;;;;;;;11.10;87.30;;;;;;5076170;28;20028;-47
2022/10/01 01:41:13;;;;;;;6.57;4.57;;;11.10;87.50;;;;;;5092813;28;19935;-47
2022/10/01 01:43:42;;;;;;;15.38;5.97;;;11.10;87.40;;;;;;5093032;28;20384;-47
2022/10/01 01:46:11;;;;;;;6.13;3.87;;;11.00;87.60;;;;;;5092807;28;20024;-47
2022/10/01 01:48:38;;;;;;;6.53;4.97;;;11.00;87.80;;;;;;5093290;28;20384;-47
2022/10/01 01:51:16;;;;;;;6.85;4.55;;;11.00;88.10;;;;;;5096869;28;20020;-46
2022/10/01 01:53:42;;;;;;;6.82;4.93;;;11.00;88.10;;;;;;5097044;28;20024;-47
2022/10/01 01:56:08;;;;;;;6.57;5.32;;;11.00;88.40;;;;;;5096686;28;20119;-48
2022/10/01 01:58:36;;;;;;;10.55;5.55;;;10.90;88.60;;;;;;5096879;28;20092;-48
2022/10/01 02:01:02;;;;;;;7.30;4.75;;;10.90;88.60;;;;;;5096594;28;20047;-47
2022/10/01 02:03:29;;;;;;;6.40;5.10;;;10.90;89.00;;;;;;5096497;28;20035;-47
2022/10/01 02:06:25;;;;;;;8.80;5.40;;;10.90;88.90;;;;;;5096302;28;20464;-49
2022/10/01 02:09:01;;;;;;;10.40;5.35;;;10.90;89.10;;;;;;5089501;28;20070;-48
2022/10/01 02:11:37;;;;;;;6.80;5.53;;;10.80;89.10;;;;;;5096807;28;20036;-46
2022/10/01 02:14:27;;;;;;;10.68;5.55;;;10.80;89.20;;;;;;5096705;28;20469;-47
2022/10/01 02:17:00;;;;;;;7.72;5.05;;;10.80;89.40;;;;;;5096872;28;20028;-48
2022/10/01 02:19:51;;;;;;;7.57;5.05;;;10.80;89.40;;;;;;5097235;28;20407;-47
2022/10/01 02:22:40;;;;;;;13.90;5.97;;;10.80;89.70;;;;;;5096333;28;20020;-48
2022/10/01 02:25:08;;;;;;;9.30;5.65;;;10.80;89.90;;;;;;5080454;28;20028;-46
2022/10/01 02:27:49;;;;;;;10.10;6.32;;;10.80;90.00;;;;;;5096204;28;20048;-48
2022/10/01 02:30:15;;;;;;;10.52;5.40;;;10.80;90.00;;;;;;5096946;28;20035;-48
2022/10/01 02:32:45;;;;;;;7.35;5.47;;;10.80;89.90;;;;;;5096380;28;20099;-49
2022/10/01 02:35:15;;;;;;;7.70;5.80;;;10.80;90.00;;;;;;5061649;28;20073;-49
2022/10/01 02:37:43;;;;;;;9.43;4.88;;;10.80;90.20;;;;;;5096554;28;20020;-48
2022/10/01 02:40:14;;;;;;;7.22;4.97;;;10.80;90.30;;;;;;5096079;28;20033;-49
2022/10/01 02:42:45;;;;;;;12.57;5.55;;;10.80;90.50;;;;;;5096237;28;20056;-49
2022/10/01 02:45:14;;;;;;;6.82;4.35;;;10.70;90.50;;;;;;5078624;28;20050;-49
2022/10/01 02:47:48;;;;;;;8.93;5.15;;;10.70;90.40;;;;;;5095917;28;20039;-52
2022/10/01 02:50:14;;;;;;;6.57;4.13;;;10.70;90.50;;;;;;5096334;28;20028;-48
2022/10/01 02:52:46;;;;;;;7.38;4.65;;;10.70;90.70;;;;;;5096252;28;20080;-49
2022/10/01 02:55:17;;;;;;;6.35;4.85;;;10.80;90.70;;;;;;5094755;28;20026;-48
2022/10/01 02:57:42;;;;;;;;;;;10.70;90.80;;;;;;5096666;28;20035;-50
2022/10/01 03:00:11;;;;;;;5.22;4.65;;;10.70;90.90;;;;;;5095539;28;19904;-48
2022/10/01 03:02:37;;;;;;;7.03;5.43;;;10.70;91.00;;;;;;5096686;28;20059;-50
2022/10/01 03:05:03;;;;;;;8.45;4.95;;;10.70;91.10;;;;;;5096478;28;20535;-48
2022/10/01 03:07:30;;;;;;;7.90;4.47;;;10.70;91.20;;;;;;5077665;28;20480;-48
2022/10/01 03:09:57;;;;;;;6.45;4.88;;;10.70;91.20;;;;;;5095759;28;20027;-48
2022/10/01 03:12:23;;;;;;;6.97;5.10;;;10.70;91.20;;;;;;5094400;28;20016;-48
2022/10/01 03:14:49;;;;;;;5.30;4.57;;;10.60;91.30;;;;;;5096059;28;20027;-49
2022/10/01 03:17:15;;;;;;;7.03;5.68;;;10.70;91.50;;;;;;5095599;28;20030;-49
2022/10/01 03:19:41;;;;;;;7.50;6.03;;;10.60;91.70;;;;;;5095590;28;20102;-53
2022/10/01 03:22:07;;;;;;;8.80;5.78;;;10.60;91.80;;;;;;5095607;28;20020;-48
2022/10/01 03:24:33;;;;;;;9.30;5.72;;;10.60;91.90;;;;;;5095415;28;20024;-50
2022/10/01 03:26:59;;;;;;;7.90;5.25;;;10.60;91.90;;;;;;5094959;28;20044;-53
2022/10/01 03:29:25;;;;;;;7.20;5.15;;;10.60;92.00;;;;;;5095243;28;20055;-50
2022/10/01 03:31:52;;;;;;;10.70;5.53;;;10.60;92.00;;;;;;5095847;28;20084;-50
2022/10/01 03:34:17;;;;;;;6.95;5.40;;;10.60;92.10;;;;;;5095008;28;20024;-49
2022/10/01 03:36:43;;;;;;;6.32;5.13;;;10.60;92.30;;;;;;5094922;28;20472;-48
2022/10/01 03:39:09;;;;;;;5.53;4.38;;;10.60;92.40;;;;;;5094760;28;20035;-50
2022/10/01 03:41:35;;;;;;;8.63;6.57;;;10.60;92.50;;;;;;5095255;28;20032;-50
2022/10/01 03:44:01;;;;;;;4.75;3.85;;;10.60;92.50;;;;;;5094992;28;20035;-50
2022/10/01 03:46:27;;;;;;;4.80;4.03;;;10.50;92.50;;;;;;5095289;28;20032;-50
2022/10/01 03:48:56;;;;;;;6.82;5.55;;;10.50;92.70;;;;;;5094799;28;20035;-51
2022/10/01 03:51:21;;;;;;;4.72;3.67;;;10.50;92.80;;;;;;5094749;28;20023;-49
2022/10/01 03:53:47;;;;;;;6.45;4.40;;;10.50;92.90;;;;;;5094836;28;20107;-50
2022/10/01 03:56:14;;;;;;;6.88;5.03;;;10.50;92.80;;;;;;5094488;28;20095;-55
2022/10/01 03:58:39;;;;;;;6.10;2.90;;;10.50;92.90;;;;;;5094401;28;20024;-51
2022/10/01 04:01:05;;;;;;;4.50;4.10;;;10.50;92.90;;;;;;5094780;28;20462;-50
2022/10/01 04:03:31;;;;;;;6.60;4.57;;;10.50;93.10;;;;;;5094232;28;20028;-50
2022/10/01 04:05:57;;;;;;;5.55;4.15;;;10.50;93.00;;;;;;5094227;28;20032;-49
2022/10/01 04:08:23;;;;;;;9.20;5.22;;;10.50;93.10;;;;;;5094170;28;20100;-49
2022/10/01 04:10:49;;;;;;;9.93;4.68;;;10.50;93.10;;;;;;5094249;28;20024;-49
2022/10/01 04:13:15;;;;;;;6.22;4.72;;;10.50;93.10;;;;;;5093762;28;20027;-49
2022/10/01 04:15:40;;;;;;;5.18;4.40;;;10.60;93.00;;;;;;5094096;28;20024;-49
2022/10/01 04:18:06;;;;;;;6.78;4.47;;;10.60;93.00;;;;;;5094288;28;20027;-50
2022/10/01 04:20:33;;;;;;;5.00;4.15;;;10.60;93.00;;;;;;5094268;28;20027;-50
2022/10/01 04:22:59;;;;;;;4.72;3.30;;;10.60;92.90;;;;;;5094244;28;20024;-48
2022/10/01 04:25:25;;;;;;;3.17;2.70;;;10.60;93.00;;;;;;5094336;28;20035;-48
2022/10/01 04:27:59;;;;;;;3.35;2.70;;;10.60;93.00;;;;;;5093918;28;20075;-49
2022/10/01 04:30:30;;;;;;;3.05;2.75;;;10.70;93.00;;;;;;5094831;28;20024;-48
2022/10/01 04:32:56;;;;;;;2.40;2.22;;;10.70;93.00;;;;;;5093816;28;20440;-48
2022/10/01 04:35:22;;;;;;;2.65;2.35;;;10.70;92.90;;;;;;5093731;28;20045;-50
2022/10/01 04:38:00;;;;;;;2.92;2.10;;;10.70;92.90;;;;;;5093638;28;20024;-49
2022/10/01 04:40:26;;;;;;;3.25;2.20;;;10.80;93.00;;;;;;5093794;28;20062;-48
2022/10/01 04:42:52;;;;;;;4.85;2.15;;;10.70;92.90;;;;;;5093558;28;20434;-48
2022/10/01 04:45:18;;;;;;;2.38;2.17;;;10.80;92.90;;;;;;5093569;28;20024;-50
2022/10/01 04:47:51;;;;;;;1.80;1.70;;;10.80;92.90;;;;;;5092191;28;20028;-50
2022/10/01 04:50:18;;;;;;;2.85;2.55;;;10.80;92.70;;;;;;5093712;28;20410;-48
2022/10/01 04:52:45;;;;;;;2.15;1.95;;;10.80;92.50;;;;;;5093877;28;20023;-49
2022/10/01 04:55:11;;;;;;;2.33;2.00;;;10.80;92.40;;;;;;5092202;28;20028;-49
2022/10/01 04:57:37;;;;;;;5.45;2.20;;;10.80;92.50;;;;;;5093609;28;20061;-49
2022/10/01 05:00:05;;;;;;;1.83;1.73;;;10.80;92.40;;;;;;5093420;28;20054;-48
2022/10/01 05:02:33;;;;;;;2.40;2.20;;;10.80;92.40;;;;;;5093219;28;20024;-48
2022/10/01 05:05:02;;;;;;;4.13;2.00;;;10.80;92.60;;;;;;5075456;28;20035;-50
2022/10/01 05:07:29;;;;;;;4.53;2.20;;;10.80;92.90;;;;;;5093348;28;20435;-50
2022/10/01 05:09:55;;;;;;;2.25;2.05;;;10.80;92.90;;;;;;5093295;28;20491;-49
2022/10/01 05:12:21;;;;;;;1.95;1.30;;;10.80;93.00;;;;;;5093465;28;20020;-48
2022/10/01 05:14:47;;;;;;;2.60;1.67;;;10.80;93.00;;;;;;5091892;28;20392;-48
2022/10/01 05:17:17;;;;;;;2.30;2.13;;;10.80;93.00;;;;;;5093361;28;20060;-49
2022/10/01 05:19:43;;;;;;;1.70;1.60;;;10.80;93.10;;;;;;5093286;28;20081;-48
2022/10/01 05:22:08;;;;;;;2.67;1.67;;;10.80;93.20;;;;;;5093368;28;20061;-49
2022/10/01 05:24:34;;;;;;;2.35;1.70;;;10.90;93.30;;;;;;5092980;28;20026;-50
2022/10/01 05:27:00;;;;;;;1.48;1.33;;;10.90;93.30;;;;;;5092831;28;20052;-49
2022/10/01 05:29:26;;;;;;;2.42;2.03;;;10.90;93.40;;;;;;5093409;28;20531;-50
2022/10/01 05:31:51;;;;;;;1.38;1.27;;;10.90;93.40;;;;;;5093034;28;20357;-52
2022/10/01 05:34:17;;;;;;;2.08;1.88;;;11.00;93.40;;;;;;5092763;28;20031;-49
2022/10/01 17:29:13;;;;;;;10.15;1.73;;;14.40;75.50;;;;;;5070671;28;20412;-48
2022/10/01 17:31:43;;;;;;;5.75;2.22;;;14.40;75.80;;;;;;5069832;28;20422;-46
2022/10/01 17:34:09;;;;;;;11.23;2.78;;;14.40;75.70;;;;;;5070063;28;20029;-47
2022/10/01 17:36:36;;;;;;;10.93;1.98;;;14.40;75.90;;;;;;5069714;28;20529;-48
2022/10/01 17:39:02;;;;;;;12.35;2.40;;;14.40;76.00;;;;;;5069782;28;20021;-48
2022/10/01 17:41:28;;;;;;;3.88;1.35;;;14.40;76.20;;;;;;5069992;28;20028;-48
2022/10/01 17:43:53;;;;;;;13.15;2.65;;;14.40;76.40;;;;;;5070035;28;20073;-47
2022/10/01 17:46:19;;;;;;;11.98;1.58;;;14.40;76.30;;;;;;5069679;28;20366;-47
2022/10/01 17:48:47;;;;;;;9.25;1.90;;;14.30;76.70;;;;;;5069741;28;20044;-46
2022/10/01 17:51:14;;;;;;;7.63;1.75;;;14.30;77.10;;;;;;5069480;28;20021;-47
2022/10/01 17:53:40;;;;;;;3.85;2.53;;;14.20;77.10;;;;;;5069736;28;20385;-47
2022/10/01 17:56:13;;;;;;;9.05;2.78;;;14.30;77.00;;;;;;5069558;28;20017;-48
2022/10/01 17:58:39;;;;;;;5.85;1.63;;;14.20;77.30;;;;;;5069373;28;20025;-48
2022/10/01 18:01:14;;;;;;;9.88;2.50;;;14.20;77.40;;;;;;5069626;28;20033;-47
2022/10/01 18:03:40;;;;;;;10.27;1.98;;;14.10;77.70;;;;;;5069154;28;20033;-46
2022/10/01 18:06:07;;;;;;;6.10;1.65;;;14.10;77.70;;;;;;5069259;28;20024;-47
2022/10/01 18:08:35;;;;;;;5.85;1.38;;;14.00;78.10;;;;;;5068959;28;20052;-48
2022/10/01 18:11:05;;;;;;;10.75;2.60;;;14.00;78.20;;;;;;5069167;28;20098;-47
2022/10/01 18:13:32;;;;;;;;;;;13.90;78.50;;;;;;5069979;28;20020;-47
2022/10/01 18:15:59;;;;;;;21.20;5.43;;;13.90;78.50;;;;;;5069188;28;19958;-47
2022/10/01 18:18:24;;;;;;;12.05;1.92;;;13.90;78.60;;;;;;5067576;28;20119;-48
2022/10/01 18:20:50;;;;;;;13.80;3.10;;;13.90;78.50;;;;;;5069259;28;20119;-47
2022/10/01 18:23:16;;;;;;;11.65;2.58;;;13.90;78.50;;;;;;5069209;28;20571;-48
2022/10/01 18:25:41;;;;;;;10.27;2.20;;;13.80;79.00;;;;;;5069230;28;20120;-49
2022/10/01 18:28:07;;;;;;;12.98;2.40;;;13.80;79.10;;;;;;5068706;28;20122;-48
2022/10/01 18:30:32;;;;;;;7.55;3.03;;;13.80;79.20;;;;;;5068906;28;20036;-48
2022/10/01 18:33:00;;;;;;;13.25;2.88;;;13.80;79.40;;;;;;5067433;28;20032;-47
2022/10/01 18:35:33;;;;;;;10.93;2.83;;;13.80;79.70;;;;;;5068756;28;20100;-48
2022/10/01 18:38:05;;;;;;;12.25;2.10;;;13.80;79.60;;;;;;5067514;28;20051;-49
2022/10/01 18:40:40;;;;;;;13.95;2.90;;;13.70;79.70;;;;;;5056422;28;20025;-49
2022/10/01 18:43:16;;;;;;;5.47;2.08;;;13.70;79.80;;;;;;5055649;28;20469;-47
2022/10/01 18:46:00;;;;;;;17.83;2.22;;;13.70;79.90;;;;;;5055415;28;20029;-46
2022/10/01 18:48:54;;;;;;;8.23;2.20;;;13.70;79.90;;;;;;5055549;28;20028;-46
2022/10/01 18:52:01;;;;;;;10.45;2.33;;;13.70;79.80;;;;;;5055079;28;20089;-47
2022/10/01 18:54:37;;;;;;;13.68;3.13;;;13.60;80.30;;;;;;5053233;28;20377;-47
2022/10/01 18:57:15;;;;;;;10.68;2.33;;;13.50;80.40;;;;;;5055235;28;20400;-46
2022/10/01 18:59:46;;;;;;;7.53;1.98;;;13.50;80.60;;;;;;5055190;28;20322;-47
2022/10/01 19:02:31;;;;;;;13.18;4.43;;;13.60;80.50;;;;;;5055130;28;20053;-47
2022/10/01 19:05:34;;;;;;;12.32;3.30;;;13.60;80.40;;;;;;5054951;28;20029;-47
2022/10/01 19:08:22;;;;;;;10.40;2.95;;;13.50;80.60;;;;;;5055012;28;20079;-48
2022/10/01 19:10:56;;;;;;;6.75;2.70;;;13.50;80.80;;;;;;5055248;28;20029;-49
2022/10/01 19:13:33;;;;;;;19.10;4.72;;;13.50;80.90;;;;;;5055360;28;20461;-46
2022/10/01 19:16:19;;;;;;;11.57;4.72;;;13.60;81.10;;;;;;5055112;28;20106;-46
2022/10/01 19:18:47;;;;;;;13.27;3.05;;;13.70;80.90;;;;;;5055314;28;20040;-47
2022/10/01 19:21:37;;;;;;;8.55;2.70;;;13.70;80.70;;;;;;5055042;28;20032;-48
2022/10/01 19:24:08;;;;;;;9.90;3.90;;;13.80;80.70;;;;;;5054982;28;20028;-46
2022/10/01 19:26:45;;;;;;;7.50;2.35;;;13.80;80.40;;;;;;5054742;28;20107;-48
2022/10/01 19:29:19;;;;;;;4.15;2.10;;;13.70;80.50;;;;;;5053325;28;20075;-48
2022/10/01 19:31:56;;;;;;;7.70;2.17;;;13.80;80.30;;;;;;5054505;28;20061;-49
2022/10/01 19:34:42;;;;;;;12.55;2.13;;;13.70;80.70;;;;;;5055139;28;20024;-47
2022/10/01 19:37:35;;;;;;;21.02;2.47;;;13.60;80.90;;;;;;5036964;28;20021;-48
2022/10/01 19:40:33;;;;;;;10.55;3.45;;;13.50;81.10;;;;;;5054754;28;20035;-47
2022/10/01 19:43:17;;;;;;;18.30;2.50;;;13.40;81.50;;;;;;5054086;28;20103;-47
2022/10/01 19:46:15;;;;;;;14.18;2.80;;;13.30;81.80;;;;;;5054576;28;20086;-48
2022/10/01 19:48:49;;;;;;;8.68;3.65;;;13.30;82.10;;;;;;5054398;28;20059;-46
2022/10/01 19:51:19;;;;;;;14.32;2.70;;;13.30;82.10;;;;;;5053838;28;20087;-46
2022/10/01 19:53:50;;;;;;;26.33;2.88;;;13.20;82.20;;;;;;5055262;28;20499;-47
2022/10/01 19:56:21;;;;;;;6.80;2.50;;;13.20;82.40;;;;;;5055179;28;20036;-48
2022/10/01 19:58:47;;;;;;;12.52;3.17;;;13.10;82.60;;;;;;5052788;28;20138;-47
2022/10/01 20:01:19;;;;;;;10.13;3.58;;;13.00;82.90;;;;;;5053915;28;20033;-48
2022/10/01 20:04:01;;;;;;;9.90;2.55;;;13.00;83.00;;;;;;5053601;28;20033;-47
2022/10/01 20:06:32;;;;;;;11.57;3.17;;;12.90;83.40;;;;;;5053813;28;20033;-49
2022/10/01 20:08:57;;;;;;;11.02;2.42;;;12.80;83.60;;;;;;5052540;28;20029;-48
2022/10/01 20:11:35;;;;;;;8.88;2.78;;;12.80;83.90;;;;;;5054023;28;20091;-47
2022/10/01 20:14:06;;;;;;;10.95;3.10;;;12.80;84.00;;;;;;5054617;28;20029;-47
2022/10/01 20:16:49;;;;;;;8.77;2.60;;;12.80;83.90;;;;;;5052673;28;20469;-47
2022/10/01 20:19:40;;;;;;;10.15;2.65;;;12.60;84.20;;;;;;5053678;28;20024;-47
2022/10/01 20:22:10;;;;;;;15.88;3.05;;;12.60;84.90;;;;;;5053512;28;20029;-49
2022/10/01 20:25:13;;;;;;;21.75;4.80;;;12.60;85.10;;;;;;5053362;28;20051;-47
2022/10/01 20:28:09;;;;;;;14.25;4.38;;;12.60;85.30;;;;;;5051127;28;20048;-48
2022/10/01 20:31:02;;;;;;;20.42;4.25;;;12.40;85.50;;;;;;5053459;28;20029;-48
2022/10/01 20:33:55;;;;;;;11.60;4.38;;;12.50;85.70;;;;;;5053336;28;20106;-47
2022/10/01 20:36:48;;;;;;;21.00;5.40;;;12.50;85.50;;;;;;5053367;28;20035;-48
2022/10/01 20:39:40;;;;;;;14.88;5.15;;;12.50;85.60;;;;;;5052864;28;20025;-47
2022/10/01 20:42:14;;;;;;;11.60;4.38;;;12.60;85.30;;;;;;5053095;28;20025;-49
2022/10/01 20:44:41;;;;;;;12.05;3.10;;;12.60;85.30;;;;;;5053790;28;20025;-47
2022/10/01 20:47:35;;;;;;;20.23;4.20;;;12.60;85.10;;;;;;5053166;28;20524;-46
2022/10/01 20:50:30;;;;;;;18.83;4.40;;;12.60;85.10;;;;;;5052755;28;20348;-47
2022/10/01 20:53:02;;;;;;;16.02;4.55;;;12.60;85.00;;;;;;5052916;28;20025;-47
2022/10/01 20:55:37;;;;;;;13.57;4.22;;;12.60;84.90;;;;;;5052938;28;20112;-47
2022/10/01 20:58:11;;;;;;;10.68;4.00;;;12.50;84.80;;;;;;5053220;28;20075;-46
2022/10/01 21:00:37;;;;;;;8.80;3.45;;;12.60;84.90;;;;;;5053047;28;20476;-47
2022/10/01 21:03:22;;;;;;;16.27;3.75;;;12.60;84.90;;;;;;5053033;28;20049;-47
2022/10/01 21:05:53;;;;;;;23.58;5.13;;;12.50;85.20;;;;;;5053155;28;20106;-47
2022/10/01 21:08:55;;;;;;;16.35;3.58;;;12.60;84.90;;;;;;5053096;28;20029;-47
2022/10/01 21:11:29;;;;;;;13.98;4.10;;;12.50;85.10;;;;;;5053182;28;20032;-47
2022/10/01 21:14:03;;;;;;;19.88;4.20;;;12.50;85.00;;;;;;5053169;28;20408;-47
2022/10/01 21:16:55;;;;;;;19.02;4.53;;;12.50;85.20;;;;;;5052832;28;20349;-46
2022/10/01 21:19:34;;;;;;;17.17;4.18;;;12.50;85.20;;;;;;5052944;28;20465;-46
2022/10/01 21:22:18;;;;;;;33.65;6.60;;;12.40;85.30;;;;;;5052491;28;20036;-47
2022/10/01 21:24:51;;;;;;;14.57;3.63;;;12.50;85.50;;;;;;5052335;28;20151;-47
2022/10/01 21:27:23;;;;;;;20.55;6.47;;;12.40;85.30;;;;;;5052556;28;20049;-47
2022/10/01 21:30:07;;;;;;;19.98;4.90;;;12.40;85.50;;;;;;5052339;28;20021;-47
2022/10/01 21:33:10;;;;;;;17.67;3.78;;;12.40;85.40;;;;;;5050954;28;20017;-46
2022/10/01 21:35:42;;;;;;;17.48;4.10;;;12.40;85.60;;;;;;5051085;28;20023;-46
2022/10/01 21:38:26;;;;;;;25.45;4.38;;;12.30;85.90;;;;;;5052597;28;20029;-47
2022/10/01 21:41:05;;;;;;;17.05;4.88;;;12.40;85.80;;;;;;5052274;28;20025;-46
2022/10/01 21:43:57;;;;;;;22.23;4.68;;;12.40;85.60;;;;;;5052630;28;20021;-47
2022/10/01 21:46:35;;;;;;;14.50;4.82;;;12.40;85.80;;;;;;5052555;28;20032;-46
2022/10/01 21:49:42;;;;;;;14.82;4.45;;;12.40;86.10;;;;;;5052438;28;20476;-46
2022/10/01 21:52:23;;;;;;;19.85;3.72;;;12.30;86.30;;;;;;5051720;28;20056;-48
2022/10/01 21:55:18;;;;;;;20.20;5.15;;;12.30;86.30;;;;;;5052664;28;20017;-46
2022/10/01 21:58:02;;;;;;;13.27;3.60;;;12.30;86.40;;;;;;5052253;28;20025;-47
2022/10/01 22:00:29;;;;;;;17.58;5.95;;;12.30;86.60;;;;;;5052409;28;20521;-49
2022/10/01 22:03:03;;;;;;;13.70;3.72;;;12.30;86.80;;;;;;5052320;28;20415;-47
2022/10/01 22:05:38;;;;;;;23.15;3.85;;;12.30;86.90;;;;;;5052213;28;20061;-47
2022/10/01 22:08:04;;;;;;;10.80;3.83;;;12.20;87.20;;;;;;5052212;28;20408;-47
2022/10/01 22:10:35;;;;;;;19.42;4.55;;;12.30;87.20;;;;;;5052485;28;20044;-47
2022/10/01 22:13:04;;;;;;;16.15;5.00;;;12.30;87.20;;;;;;5052337;28;20362;-47
2022/10/01 22:15:39;;;;;;;13.25;3.90;;;12.30;87.20;;;;;;5055149;28;20072;-47
2022/10/01 22:18:16;;;;;;;20.63;4.95;;;12.30;87.30;;;;;;5056050;28;20397;-47
2022/10/01 22:20:45;;;;;;;9.50;3.75;;;12.20;87.60;;;;;;5056293;28;20017;-54
2022/10/01 22:23:17;;;;;;;15.80;5.07;;;12.20;87.60;;;;;;5055724;28;20032;-47
2022/10/01 22:25:56;;;;;;;16.55;5.45;;;12.20;87.90;;;;;;5056006;28;20032;-47
2022/10/01 22:28:29;;;;;;;16.83;5.10;;;12.20;87.80;;;;;;5055454;28;20052;-47
2022/10/01 22:30:58;;;;;;;24.38;4.47;;;12.10;88.00;;;;;;5055644;28;20108;-48
2022/10/01 22:33:27;;;;;;;30.15;5.47;;;12.10;87.90;;;;;;5055983;28;20025;-47
2022/10/01 22:35:58;;;;;;;19.63;4.97;;;12.10;88.20;;;;;;5055931;28;20053;-46
2022/10/01 22:38:39;;;;;;;24.35;7.32;;;12.20;88.10;;;;;;5055943;28;20099;-47
2022/10/01 22:41:12;;;;;;;19.73;5.47;;;12.20;88.10;;;;;;5056005;28;20366;-46
2022/10/01 22:43:40;;;;;;;19.52;5.63;;;12.30;88.00;;;;;;5055419;28;20107;-45
2022/10/01 22:46:24;;;;;;;14.60;4.53;;;12.20;87.90;;;;;;5055508;28;20043;-47
2022/10/01 22:49:08;;;;;;;19.75;5.75;;;12.20;88.30;;;;;;5055541;28;20036;-48
2022/10/01 22:52:07;;;;;;;11.48;3.85;;;12.10;88.40;;;;;;5055380;28;20045;-47
2022/10/01 22:54:41;;;;;;;11.48;3.42;;;12.10;88.50;;;;;;5055597;28;20044;-48
2022/10/01 22:57:37;;;;;;;20.10;3.63;;;12.10;88.50;;;;;;5055650;28;20381;-49
2022/10/01 23:00:08;;;;;;;16.33;3.97;;;12.00;88.80;;;;;;5055916;28;20104;-47
2022/10/01 23:02:36;;;;;;;;;;;12.00;88.80;;;;;;5056097;28;20025;-48
2022/10/01 23:05:12;;;;;;;16.50;3.92;;;11.90;88.80;;;;;;5055387;28;19999;-47
2022/10/01 23:07:55;;;;;;;12.70;4.05;;;11.90;88.90;;;;;;5054910;28;20104;-49
2022/10/01 23:10:42;;;;;;;13.90;4.40;;;11.90;89.00;;;;;;5055220;28;20058;-48
2022/10/01 23:13:19;;;;;;;16.25;3.17;;;11.90;88.90;;;;;;5053681;28;20017;-46
2022/10/01 23:16:26;;;;;;;23.63;5.38;;;11.90;89.20;;;;;;5054880;28;20057;-47
2022/10/01 23:18:52;;;;;;;17.10;3.17;;;11.90;89.10;;;;;;5055121;28;20028;-47
2022/10/01 23:21:41;;;;;;;17.88;3.97;;;11.90;89.00;;;;;;5054982;28;20020;-46
2022/10/01 23:24:32;;;;;;;12.57;4.43;;;11.90;88.90;;;;;;5054868;28;20465;-46
2022/10/01 23:27:06;;;;;;;;;;;11.90;88.90;;;;;;5054605;28;20021;-46
2022/10/01 23:29:34;;;;;;;16.35;4.13;;;11.90;88.90;;;;;;5054854;28;19913;-48
2022/10/01 23:32:31;;;;;;;19.88;3.92;;;12.00;88.90;;;;;;5054426;28;20033;-47
2022/10/01 23:35:26;;;;;;;11.70;4.80;;;11.90;88.90;;;;;;5054733;28;20025;-47
2022/10/01 23:38:10;;;;;;;16.23;5.10;;;12.00;88.90;;;;;;5054005;28;20048;-47
2022/10/01 23:40:44;;;;;;;9.15;3.45;;;12.00;88.80;;;;;;5054300;28;20102;-46
2022/10/01 23:43:57;;;;;;;14.30;4.03;;;12.00;88.80;;;;;;5054852;28;20362;-46
2022/10/01 23:46:29;;;;;;;10.38;2.40;;;12.00;89.00;;;;;;5052940;28;20048;-48
2022/10/01 23:48:56;;;;;;;17.90;4.95;;;12.10;89.10;;;;;;5054504;28;20463;-48
2022/10/01 23:51:29;;;;;;;12.00;4.57;;;12.00;89.00;;;;;;5054434;28;20024;-47
2022/10/01 23:54:10;;;;;;;18.05;3.95;;;12.10;89.00;;;;;;5054633;28;20060;-47
2022/10/01 23:56:47;;;;;;;16.85;4.32;;;12.10;89.40;;;;;;5054180;28;20381;-47
2022/10/01 23:59:57;;;;;;;17.02;5.28;;;12.20;89.10;;;;;;5054641;28;20517;-47
